createdAt,value
2022-10-12T00:04:59.018Z,79.88
2022-10-12T00:10:00.418Z,79.66
2022-10-12T00:15:01.806Z,79.54
2022-10-12T00:20:04.434Z,79.56
2022-10-12T00:25:06.491Z,79.58
2022-10-12T00:30:08.548Z,78.96
2022-10-12T00:35:10.004Z,78.77
2022-10-12T00:40:11.882Z,79.27
2022-10-12T00:45:13.274Z,79.60
2022-10-12T00:50:18.016Z,79.20
2022-10-12T00:55:23.262Z,78.96
2022-10-12T01:00:25.055Z,78.79
2022-10-12T01:05:26.918Z,79.47
2022-10-12T01:10:28.665Z,79.92
2022-10-12T01:15:42.416Z,79.93
2022-10-12T01:21:10.194Z,79.66
2022-10-12T01:26:17.599Z,79.44
2022-10-12T01:31:57.562Z,79.22
2022-10-12T01:37:10.593Z,79.07
2022-10-12T01:42:19.014Z,79.05
2022-10-12T01:47:20.628Z,79.51
2022-10-12T01:52:28.190Z,79.23
2022-10-12T01:57:43.786Z,79.33
2022-10-12T02:03:10.529Z,79.54
2022-10-12T02:08:41.671Z,79.24
2022-10-12T02:13:52.583Z,79.60
2022-10-12T02:18:57.499Z,79.31
2022-10-12T02:24:05.165Z,79.25
2022-10-12T02:29:13.242Z,79.32
2022-10-12T02:34:32.369Z,79.04
2022-10-12T02:39:42.393Z,79.03
2022-10-12T02:44:45.017Z,79.61
2022-10-12T02:49:47.345Z,79.33
2022-10-12T02:54:48.769Z,79.07
2022-10-12T02:59:50.199Z,79.44
2022-10-12T03:04:51.627Z,79.69
2022-10-12T03:09:53.037Z,79.33
2022-10-12T03:14:54.426Z,79.20
2022-10-12T03:19:55.830Z,77.57
2022-10-12T03:24:57.217Z,79.00
2022-10-12T03:29:58.594Z,78.92
2022-10-12T03:34:59.992Z,79.76
2022-10-12T03:40:01.833Z,80.42
2022-10-12T03:45:03.603Z,79.86
2022-10-12T03:50:05.810Z,79.32
2022-10-12T03:55:07.528Z,79.59
2022-10-12T04:00:09.696Z,78.93
2022-10-12T04:05:14.119Z,79.02
2022-10-12T04:10:15.611Z,79.21
2022-10-12T04:15:17.133Z,79.59
2022-10-12T04:20:18.711Z,79.35
2022-10-12T04:25:20.128Z,79.90
2022-10-12T04:30:21.531Z,79.61
2022-10-12T04:35:22.951Z,79.33
2022-10-12T04:40:24.498Z,78.51
2022-10-12T04:45:25.888Z,76.84
2022-10-12T04:50:29.998Z,78.14
2022-10-12T04:55:31.707Z,77.95
2022-10-12T05:00:33.105Z,77.66
2022-10-12T05:05:34.534Z,76.99
2022-10-12T05:10:35.943Z,76.72
2022-10-12T05:15:37.326Z,76.88
2022-10-12T05:20:38.716Z,77.31
2022-10-12T05:25:40.169Z,77.17
2022-10-12T05:30:41.604Z,77.00
2022-10-12T05:35:47.479Z,76.97
2022-10-12T05:40:50.288Z,77.33
2022-10-12T05:45:51.675Z,79.82
2022-10-12T05:50:54.248Z,78.30
2022-10-12T05:55:57.734Z,77.55
2022-10-12T06:01:10.931Z,77.77
2022-10-12T06:06:12.313Z,77.89
2022-10-12T06:11:13.854Z,77.82
2022-10-12T06:16:15.261Z,76.96
2022-10-12T06:26:38.004Z,76.66
2022-10-12T06:31:39.460Z,76.50
2022-10-12T06:36:40.963Z,76.32
2022-10-12T06:41:42.367Z,76.36
2022-10-12T06:46:43.746Z,76.15
2022-10-12T06:51:45.214Z,76.45
2022-10-12T06:56:46.599Z,76.36
2022-10-12T07:01:49.029Z,76.57
2022-10-12T07:06:50.429Z,76.34
2022-10-12T07:11:51.854Z,77.42
2022-10-12T07:16:55.460Z,76.76
2022-10-12T07:21:57.062Z,76.38
2022-10-12T07:26:58.442Z,76.14
2022-10-12T07:32:00.081Z,77.47
2022-10-12T07:37:01.785Z,76.70
2022-10-12T07:42:03.487Z,76.49
2022-10-12T07:47:04.960Z,75.73
2022-10-12T07:52:06.376Z,75.00
2022-10-12T07:57:07.787Z,75.64
2022-10-12T08:02:11.703Z,74.78
2022-10-12T08:07:13.306Z,73.86
2022-10-12T08:12:14.743Z,73.12
2022-10-12T08:17:16.149Z,72.43
2022-10-12T08:22:17.550Z,71.82
2022-10-12T08:27:18.958Z,72.01
2022-10-12T08:32:20.341Z,72.52
2022-10-12T08:37:21.716Z,71.51
2022-10-12T08:42:29.058Z,71.38
2022-10-12T08:47:41.971Z,71.54
2022-10-12T08:52:52.027Z,72.48
2022-10-12T08:57:54.671Z,71.80
2022-10-12T09:03:20.547Z,70.49
2022-10-12T09:08:42.170Z,70.60
2022-10-12T09:14:02.772Z,71.29
2022-10-12T09:19:18.362Z,71.06
2022-10-12T09:24:25.247Z,70.44
2022-10-12T09:29:30.062Z,70.57
2022-10-12T09:34:32.722Z,69.51
2022-10-12T09:39:36.678Z,69.23
2022-10-12T09:45:24.154Z,68.97
2022-10-12T09:50:40.341Z,69.09
2022-10-12T09:55:52.909Z,68.95
2022-10-12T10:01:22.253Z,68.75
2022-10-12T10:06:25.018Z,68.40
2022-10-12T10:11:28.882Z,68.43
2022-10-12T10:16:30.547Z,69.33
2022-10-12T10:21:34.998Z,69.32
2022-10-12T10:26:54.892Z,69.36
2022-10-12T10:32:19.859Z,68.88
2022-10-12T10:37:23.036Z,69.03
2022-10-12T10:42:30.542Z,69.55
2022-10-12T10:47:33.923Z,69.18
2022-10-12T10:52:37.057Z,69.16
2022-10-12T10:57:44.262Z,68.11
2022-10-12T11:02:50.848Z,68.75
2022-10-12T11:08:02.451Z,68.26
2022-10-12T11:13:14.748Z,68.89
2022-10-12T11:18:30.566Z,68.36
2022-10-12T11:23:42.242Z,68.40
2022-10-12T11:28:44.215Z,68.83
2022-10-12T11:33:47.069Z,68.79
2022-10-12T11:38:54.461Z,68.46
2022-10-12T11:44:07.315Z,68.02
2022-10-12T11:49:26.146Z,68.36
2022-10-12T11:54:35.259Z,67.94
2022-10-12T11:59:52.968Z,67.29
2022-10-12T12:04:55.008Z,67.64
2022-10-12T12:09:56.735Z,66.88
2022-10-12T12:15:05.918Z,68.00
2022-10-12T12:20:44.065Z,68.04
2022-10-12T12:25:45.635Z,67.22
2022-10-12T12:31:02.577Z,67.46
2022-10-12T12:36:07.669Z,66.37
2022-10-12T12:41:18.154Z,67.07
2022-10-12T12:46:20.753Z,67.68
2022-10-12T12:51:36.744Z,67.72
2022-10-12T12:56:50.585Z,68.13
2022-10-12T13:02:29.306Z,68.09
2022-10-12T13:07:51.688Z,68.58
2022-10-12T13:12:59.174Z,68.28
2022-10-12T13:18:42.212Z,68.28
2022-10-12T13:23:41.209Z,67.38
2022-10-12T13:28:43.316Z,67.94
2022-10-12T13:33:49.355Z,67.62
2022-10-12T13:38:59.234Z,67.04
2022-10-12T13:44:04.029Z,67.20
2022-10-12T13:49:26.341Z,67.04
2022-10-12T13:54:35.395Z,67.33
2022-10-12T13:59:38.776Z,67.28
2022-10-12T14:04:42.831Z,67.35
2022-10-12T14:09:47.468Z,67.18
2022-10-12T14:14:49.763Z,67.04
2022-10-12T14:19:53.660Z,67.01
2022-10-12T14:25:14.772Z,67.21
2022-10-12T14:30:18.368Z,67.75
2022-10-12T14:35:26.527Z,68.48
2022-10-12T14:40:36.622Z,68.38
2022-10-12T14:45:38.217Z,67.79
2022-10-12T14:50:39.638Z,68.64
2022-10-12T14:55:41.997Z,68.47
2022-10-12T15:00:43.875Z,68.47
2022-10-12T15:05:45.302Z,68.19
2022-10-12T15:10:50.556Z,68.76
2022-10-12T15:15:53.552Z,68.50
2022-10-12T15:20:55.422Z,68.94
2022-10-12T15:25:56.825Z,69.72
2022-10-12T15:36:21.614Z,70.20
2022-10-12T15:41:25.697Z,69.76
2022-10-12T15:46:27.161Z,69.38
2022-10-12T15:51:28.699Z,69.69
2022-10-12T15:56:30.087Z,70.10
2022-10-12T16:01:33.675Z,70.09
2022-10-12T16:06:35.051Z,70.46
2022-10-12T16:11:36.432Z,70.45
2022-10-12T16:16:37.863Z,70.53
2022-10-12T16:21:39.279Z,69.88
2022-10-12T16:26:44.858Z,70.44
2022-10-12T16:31:46.571Z,70.34
2022-10-12T16:36:47.975Z,69.82
2022-10-12T16:41:49.387Z,69.51
2022-10-12T16:46:50.873Z,70.56
2022-10-12T16:51:52.287Z,70.53
2022-10-12T16:56:53.714Z,69.78
2022-10-12T17:01:55.131Z,69.49
2022-10-12T17:06:56.552Z,70.20
2022-10-12T17:11:57.975Z,70.68
2022-10-12T17:16:59.476Z,70.71
2022-10-12T17:22:02.428Z,71.33
2022-10-12T17:27:05.820Z,71.51
2022-10-12T17:32:09.233Z,72.69
2022-10-12T17:37:15.161Z,73.08
2022-10-12T17:42:16.925Z,72.99
2022-10-12T17:47:18.720Z,73.27
2022-10-12T17:52:20.398Z,73.18
2022-10-12T17:57:21.856Z,72.70
2022-10-12T18:02:23.290Z,73.70
2022-10-12T18:07:24.748Z,73.67
2022-10-12T18:12:26.130Z,73.24
2022-10-12T18:17:27.530Z,73.15
2022-10-12T18:22:29.386Z,73.26
2022-10-12T18:27:30.808Z,73.00
2022-10-12T18:32:32.235Z,72.54
2022-10-12T18:37:33.647Z,72.63
2022-10-12T18:42:35.060Z,72.39
2022-10-12T18:47:37.324Z,71.40
2022-10-12T18:52:38.749Z,71.31
2022-10-12T18:57:40.318Z,71.50
2022-10-12T19:02:41.763Z,71.39
2022-10-12T19:07:43.190Z,72.04
2022-10-12T19:12:45.845Z,72.65
2022-10-12T19:17:47.371Z,73.69
2022-10-12T19:22:48.824Z,74.62
2022-10-12T19:27:50.295Z,74.74
2022-10-12T19:32:51.815Z,75.29
2022-10-12T19:37:53.213Z,75.23
2022-10-12T19:42:54.598Z,75.50
2022-10-12T19:47:56.070Z,75.23
2022-10-12T19:52:57.528Z,75.27
2022-10-12T19:57:58.989Z,74.62
2022-10-12T20:03:00.510Z,75.62
2022-10-12T20:08:01.925Z,75.60
2022-10-12T20:13:03.437Z,75.87
2022-10-12T20:18:04.980Z,75.80
2022-10-12T20:23:06.417Z,75.86
2022-10-12T20:28:08.422Z,75.50
2022-10-12T20:33:10.097Z,75.47
2022-10-12T20:38:11.525Z,75.50
2022-10-12T20:43:14.465Z,75.69
2022-10-12T20:48:15.865Z,75.82
2022-10-12T20:53:17.274Z,75.44
2022-10-12T20:58:18.684Z,75.00
2022-10-12T21:03:20.088Z,75.38
2022-10-12T21:08:21.496Z,76.63
2022-10-12T21:13:22.973Z,76.75
2022-10-12T21:18:24.845Z,76.48
2022-10-12T21:23:27.294Z,76.57
2022-10-12T21:28:28.700Z,77.25
2022-10-12T21:33:30.201Z,76.79
2022-10-12T21:38:31.617Z,76.95
2022-10-12T21:43:33.427Z,75.89
2022-10-12T21:48:35.396Z,76.77
2022-10-12T21:53:38.092Z,77.19
2022-10-12T21:58:39.600Z,77.62
2022-10-12T22:03:42.459Z,77.43
2022-10-12T22:08:44.946Z,77.29
2022-10-12T22:13:52.989Z,77.37
2022-10-12T22:18:56.780Z,77.48
2022-10-12T22:24:01.927Z,76.88
2022-10-12T22:29:05.036Z,76.89
2022-10-12T22:34:06.842Z,76.19
2022-10-12T22:39:10.694Z,76.05
2022-10-12T22:44:12.072Z,76.46
2022-10-12T22:49:13.493Z,76.21
2022-10-12T22:54:14.883Z,76.92
2022-10-12T22:59:16.314Z,77.48
2022-10-12T23:04:17.719Z,77.20
2022-10-12T23:09:19.168Z,77.69
2022-10-12T23:14:20.559Z,77.66
2022-10-12T23:19:21.962Z,78.24
2022-10-12T23:24:23.380Z,78.61
2022-10-12T23:29:24.784Z,78.85
2022-10-12T23:34:26.292Z,78.68
2022-10-12T23:39:27.712Z,78.63
2022-10-12T23:44:29.116Z,78.66
2022-10-12T23:49:30.531Z,78.25
2022-10-12T23:54:35.720Z,78.35
2022-10-12T23:59:37.131Z,78.48
